Time;durP1;ratioP1;P1;durP2;ratioP2;P2;SDS_P1;SDS_P2;PMS_P1;PMS_P2;Temp;Humidity;BMP_temperature;BMP_pressure;BME280_temperature;BME280_humidity;BME280_pressure;Samples;Min_cycle;Max_cycle;Signal;HPM_P1;HPM_P2
2022/04/11 00:04:21;;;;;;;11.17;5.30;;;;;;;-1.59;100.00;96972.09;10494641;28;20203;-56
2022/04/11 00:09:21;;;;;;;5.97;4.20;;;;;;;-1.57;100.00;96967.75;10494390;28;20341;-61
2022/04/11 00:14:23;;;;;;;5.20;4.00;;;;;;;-1.51;100.00;96968.25;10493845;28;20326;-58
2022/04/11 00:19:23;;;;;;;7.27;4.50;;;;;;;-1.51;100.00;96963.13;10493891;28;20226;-58
2022/04/11 00:24:24;;;;;;;4.83;2.53;;;;;;;-1.45;100.00;96965.38;10493541;28;20659;-57
2022/04/11 00:29:24;;;;;;;8.33;4.97;;;;;;;-1.41;100.00;96960.91;10493809;28;20739;-56
2022/04/11 00:34:24;;;;;;;11.10;4.40;;;;;;;-1.42;100.00;96956.69;10492493;28;20611;-59
2022/04/11 00:39:26;;;;;;;12.70;4.87;;;;;;;-1.44;100.00;96955.94;10493506;28;20199;-55
2022/04/11 00:44:26;;;;;;;7.43;4.23;;;;;;;-1.51;100.00;96957.97;10492297;28;20203;-58
2022/04/11 00:49:26;;;;;;;9.80;4.53;;;;;;;-1.54;100.00;96960.69;10492790;28;20179;-59
2022/04/11 00:54:27;;;;;;;8.63;5.07;;;;;;;-1.58;100.00;96961.75;10492537;28;20656;-58
2022/04/11 00:59:28;;;;;;;6.67;4.67;;;;;;;-1.54;100.00;96962.44;10492278;28;20190;-58
2022/04/11 01:04:28;;;;;;;9.47;4.80;;;;;;;-1.44;100.00;96956.78;10490494;28;20229;-58
2022/04/11 01:09:30;;;;;;;9.87;4.70;;;;;;;-1.37;100.00;96959.88;10490199;28;20214;-57
2022/04/11 01:14:31;;;;;;;9.10;4.73;;;;;;;-1.25;100.00;96963.56;10482486;22;20262;-51
2022/04/11 01:19:31;;;;;;;9.03;4.90;;;;;;;-1.01;100.00;96958.06;10448529;28;20692;-50
2022/04/11 01:24:34;;;;;;;7.63;4.70;;;;;;;-0.95;100.00;96953.47;10476304;28;20199;-54
2022/04/11 01:29:34;;;;;;;8.63;4.93;;;;;;;-0.92;100.00;96960.16;10491548;28;20647;-56
2022/04/11 01:34:35;;;;;;;9.17;4.67;;;;;;;-0.84;100.00;96962.34;10491296;28;20309;-51
2022/04/11 01:39:36;;;;;;;7.70;4.47;;;;;;;-0.80;100.00;96958.72;10490697;28;20682;-51
2022/04/11 01:44:37;;;;;;;8.63;4.27;;;;;;;-0.90;100.00;96956.63;10490958;28;20243;-52
2022/04/11 01:49:37;;;;;;;12.90;4.97;;;;;;;-0.85;100.00;96952.97;10490406;28;20241;-51
2022/04/11 01:54:38;;;;;;;9.00;4.60;;;;;;;-0.69;100.00;96947.84;10489469;28;20353;-51
2022/04/11 01:59:38;;;;;;;8.50;5.00;;;;;;;-0.84;100.00;96958.03;10490151;28;20206;-51
2022/04/11 02:04:39;;;;;;;6.73;4.50;;;;;;;-0.84;100.00;96952.91;10489879;28;20349;-54
2022/04/11 02:09:40;;;;;;;9.03;4.40;;;;;;;-0.87;100.00;96953.06;10489681;28;20210;-53
2022/04/11 02:14:40;;;;;;;10.93;3.90;;;;;;;-0.92;100.00;96961.03;10492812;28;20283;-52
2022/04/11 02:19:41;;;;;;;11.40;4.53;;;;;;;-1.12;100.00;96956.91;10490168;28;20681;-55
2022/04/11 02:24:41;;;;;;;6.07;4.10;;;;;;;-1.11;100.00;96955.16;10496846;28;20388;-55
2022/04/11 02:29:42;;;;;;;7.40;3.70;;;;;;;-1.15;100.00;96958.78;10496655;28;20196;-53
2022/04/11 02:34:42;;;;;;;6.20;4.03;;;;;;;-1.30;100.00;96960.41;10496511;28;20244;-55
2022/04/11 02:39:43;;;;;;;9.67;4.40;;;;;;;-1.32;100.00;96975.91;10497772;28;20183;-51
2022/04/11 02:44:43;;;;;;;9.60;4.20;;;;;;;-1.40;100.00;96972.03;10495915;28;20195;-53
2022/04/11 02:49:44;;;;;;;5.70;4.00;;;;;;;-1.46;100.00;96966.28;10495446;28;20725;-52
2022/04/11 02:54:58;;;;;;;6.43;4.43;;;;;;;-1.52;100.00;96969.16;10495819;28;20728;-54
2022/04/11 02:59:59;;;;;;;7.23;4.27;;;;;;;-1.54;100.00;96970.97;10495671;28;20230;-54
2022/04/11 03:04:59;;;;;;;8.63;4.90;;;;;;;-1.62;100.00;96962.81;10491045;28;20199;-56
2022/04/11 03:10:00;;;;;;;8.77;4.07;;;;;;;-1.73;100.00;96963.34;10487925;28;20183;-56
2022/04/11 03:15:02;;;;;;;6.17;4.13;;;;;;;-1.80;100.00;96962.78;10487675;28;20231;-54
2022/04/11 03:20:04;;;;;;;8.40;4.37;;;;;;;-1.71;100.00;96961.53;10487691;28;20187;-51
2022/04/11 03:25:07;;;;;;;8.13;3.77;;;;;;;-1.72;100.00;96964.16;10485611;28;20207;-53
2022/04/11 03:30:08;;;;;;;10.47;4.40;;;;;;;-1.79;100.00;96961.06;10488194;28;20287;-53
2022/04/11 03:35:11;;;;;;;10.20;4.13;;;;;;;-1.85;100.00;96964.75;10487520;28;20264;-53
2022/04/11 03:40:13;;;;;;;6.57;3.90;;;;;;;-1.84;100.00;96952.75;10487273;28;20566;-54
2022/04/11 03:45:14;;;;;;;8.97;3.80;;;;;;;-1.85;100.00;96951.94;10486367;28;20261;-51
2022/04/11 03:50:18;;;;;;;7.87;3.57;;;;;;;-1.81;100.00;96956.03;10485245;28;20191;-55
2022/04/11 03:55:19;;;;;;;7.87;4.40;;;;;;;-1.83;100.00;96949.28;10486023;28;20302;-58
2022/04/11 04:00:24;;;;;;;8.07;4.07;;;;;;;-1.83;100.00;96947.53;10486113;28;20187;-54
2022/04/11 04:05:43;;;;;;;14.00;4.43;;;;;;;-1.95;100.00;96945.56;10493170;28;20301;-58
2022/04/11 04:10:44;;;;;;;9.00;4.53;;;;;;;-1.98;100.00;96944.00;10493049;28;20278;-57
2022/04/11 04:15:45;;;;;;;6.40;3.90;;;;;;;-1.99;100.00;96942.31;10493296;28;20227;-51
2022/04/11 04:20:46;;;;;;;7.57;4.20;;;;;;;-1.98;100.00;96938.84;10492876;28;20195;-52
2022/04/11 04:25:47;;;;;;;10.17;3.70;;;;;;;-2.03;100.00;96945.09;10492140;28;20200;-56
2022/04/11 04:30:47;;;;;;;7.60;3.83;;;;;;;-2.02;100.00;96949.31;10492276;28;20244;-57
2022/04/11 04:35:49;;;;;;;7.70;4.47;;;;;;;-2.06;100.00;96943.50;10491929;28;20632;-58
2022/04/11 04:40:49;;;;;;;9.67;3.93;;;;;;;-2.04;100.00;96944.25;10493857;28;20245;-56
2022/04/11 04:45:54;;;;;;;9.70;3.87;;;;;;;-2.06;100.00;96955.53;10491691;28;20286;-57
2022/04/11 04:51:08;;;;;;;6.73;3.93;;;;;;;-2.12;100.00;96950.69;10491360;28;20191;-56
2022/04/11 04:56:11;;;;;;;4.30;2.40;;;;;;;-2.09;100.00;96947.97;10491985;28;20191;-57
2022/04/11 05:01:16;;;;;;;7.13;3.83;;;;;;;-2.01;100.00;96943.28;10486193;28;20195;-58
2022/04/11 05:06:16;;;;;;;12.70;3.70;;;;;;;-2.01;100.00;96949.25;10491303;28;20191;-57
2022/04/11 05:11:20;;;;;;;6.37;3.67;;;;;;;-1.95;100.00;96948.13;10491057;28;20195;-58
2022/04/11 05:16:23;;;;;;;14.87;6.03;;;;;;;-1.88;100.00;96943.56;10491163;28;20202;-55
2022/04/11 05:21:23;;;;;;;18.47;8.53;;;;;;;-1.77;100.00;96949.00;10491204;28;20592;-53
2022/04/11 05:26:24;;;;;;;38.13;14.30;;;;;;;-1.57;100.00;96944.63;10491288;28;20198;-53
2022/04/11 05:31:24;;;;;;;16.63;9.37;;;;;;;-1.30;100.00;96945.00;10491060;28;20381;-53
2022/04/11 05:36:27;;;;;;;8.07;4.77;;;;;;;-0.87;100.00;96941.94;10490583;28;20618;-53
2022/04/11 05:41:27;;;;;;;8.07;2.93;;;;;;;-0.23;100.00;96943.66;10490363;28;20222;-52
2022/04/11 05:46:28;;;;;;;10.63;2.87;;;;;;;0.36;100.00;96945.53;10490559;28;20222;-55
2022/04/11 05:51:39;;;;;;;6.63;3.30;;;;;;;0.83;100.00;96944.53;10497228;28;20203;-56
2022/04/11 05:56:41;;;;;;;7.13;3.73;;;;;;;0.93;100.00;96952.53;10492921;28;20278;-53
2022/04/11 06:01:45;;;;;;;8.37;3.30;;;;;;;1.14;100.00;96950.44;10476575;28;20207;-50
2022/04/11 06:06:46;;;;;;;5.10;2.70;;;;;;;1.94;100.00;96949.88;10467625;28;20206;-52
2022/04/11 06:11:46;;;;;;;6.80;2.90;;;;;;;2.73;100.00;96945.63;10456212;28;20656;-51
2022/04/11 06:16:49;;;;;;;10.53;4.43;;;;;;;3.12;100.00;96936.09;10456515;28;20220;-55
2022/04/11 06:21:50;;;;;;;6.90;3.20;;;;;;;3.08;100.00;96939.00;10456060;28;20305;-55
2022/04/11 06:26:50;;;;;;;10.37;4.70;;;;;;;3.07;100.00;96932.19;10469756;28;20191;-57
2022/04/11 06:31:51;;;;;;;5.13;3.00;;;;;;;3.80;100.00;96941.78;10455906;28;20293;-58
2022/04/11 06:36:59;;;;;;;7.23;2.60;;;;;;;3.92;95.78;96915.00;10463413;28;20871;-59
2022/04/11 06:42:00;;;;;;;5.13;2.30;;;;;;;4.99;89.23;96882.06;10491986;28;20219;-58
2022/04/11 06:47:02;;;;;;;8.30;3.27;;;;;;;5.22;84.87;96866.44;10491817;28;20244;-59
2022/04/11 06:52:03;;;;;;;2.13;1.63;;;;;;;5.58;79.83;96812.56;10490164;28;20241;-59
2022/04/11 06:57:04;;;;;;;6.07;2.50;;;;;;;5.78;80.74;96849.13;10492819;28;20665;-60
2022/04/11 07:02:04;;;;;;;7.27;2.00;;;;;;;4.64;74.82;96763.59;10492572;28;20223;-60
2022/04/11 07:07:04;;;;;;;6.47;1.93;;;;;;;4.42;80.74;96857.78;10491462;28;20366;-60
2022/04/11 07:12:05;;;;;;;3.73;1.20;;;;;;;5.07;75.68;96797.53;10485037;28;20227;-60
2022/04/11 07:17:06;;;;;;;2.80;1.43;;;;;;;4.70;76.57;96828.94;10462252;22;20310;-58
2022/04/11 07:22:06;;;;;;;4.50;1.53;;;;;;;5.28;72.57;96759.50;10377854;28;20271;-60
2022/04/11 07:27:06;;;;;;;4.87;1.50;;;;;;;4.74;75.01;96827.75;10368224;28;20216;-58
2022/04/11 07:32:07;;;;;;;5.30;1.53;;;;;;;5.74;70.18;96748.94;10369361;28;20192;-57
2022/04/11 07:37:07;;;;;;;1.47;1.00;;;;;;;5.42;72.53;96793.94;10392877;28;20219;-60
2022/04/11 07:42:08;;;;;;;3.93;1.53;;;;;;;6.08;69.30;96767.81;10409372;28;20582;-56
2022/04/11 07:47:08;;;;;;;3.90;1.37;;;;;;;6.10;68.06;96734.72;10411183;28;20638;-55
2022/04/11 07:52:09;;;;;;;2.40;1.30;;;;;;;7.42;63.08;96664.34;10408196;28;20721;-57
2022/04/11 07:57:09;;;;;;;10.83;1.27;;;;;;;6.42;65.86;96724.19;10409987;28;20214;-53
2022/04/11 08:02:09;;;;;;;8.17;2.03;;;;;;;5.08;65.47;96701.34;10409607;28;20307;-58
2022/04/11 08:07:10;;;;;;;4.30;1.30;;;;;;;7.09;65.05;96716.72;10407404;28;20211;-58
2022/04/11 08:12:10;;;;;;;3.53;1.17;;;;;;;6.89;59.21;96590.88;10407938;28;20238;-55
2022/04/11 08:17:11;;;;;;;11.73;1.60;;;;;;;7.09;62.09;96666.41;10400661;28;20710;-54
2022/04/11 08:22:11;;;;;;;3.67;1.30;;;;;;;6.94;61.83;96666.78;10408708;28;20957;-54
2022/04/11 08:27:12;;;;;;;3.47;1.23;;;;;;;7.32;61.05;96672.19;10408715;28;20204;-58
2022/04/11 08:32:12;;;;;;;2.67;1.30;;;;;;;6.87;61.45;96677.88;10408510;28;20303;-56
2022/04/11 08:37:12;;;;;;;5.83;1.30;;;;;;;7.68;58.26;96623.69;10407833;28;20235;-56
2022/04/11 08:42:13;;;;;;;3.17;1.00;;;;;;;9.53;55.96;96621.03;10407204;28;20228;-56
2022/04/11 08:47:14;;;;;;;3.57;1.20;;;;;;;9.76;52.82;96550.72;10408002;28;20211;-60
2022/04/11 08:52:14;;;;;;;4.40;1.10;;;;;;;7.49;57.31;96614.16;10406671;28;20291;-57
2022/04/11 08:57:14;;;;;;;2.10;0.80;;;;;;;10.00;50.38;96510.78;10407495;28;20212;-60
2022/04/11 09:02:15;;;;;;;3.20;1.10;;;;;;;9.71;50.89;96520.78;10407671;28;20686;-62
2022/04/11 09:07:15;;;;;;;2.30;1.00;;;;;;;9.31;48.76;96460.28;10406557;28;20213;-61
2022/04/11 09:12:19;;;;;;;3.97;0.80;;;;;;;8.46;51.18;96523.44;10407024;28;20667;-61
2022/04/11 09:17:23;;;;;;;2.63;1.27;;;;;;;8.89;51.89;96541.94;10406732;28;20369;-60
2022/04/11 09:22:30;;;;;;;0.97;0.80;;;;;;;10.03;48.79;96493.97;10405169;28;20216;-62
2022/04/11 09:27:30;;;;;;;1.00;0.77;;;;;;;12.27;45.40;96465.56;10415448;28;20586;-61
2022/04/11 09:32:31;;;;;;;3.47;1.10;;;;;;;14.24;39.21;96325.03;10415839;28;20184;-59
2022/04/11 09:37:31;;;;;;;1.75;1.00;;;;;;;12.47;43.75;96441.47;10414785;28;20223;-58
2022/04/11 09:42:32;;;;;;;2.38;1.10;;;;;;;10.85;40.88;96286.28;10398725;28;20217;-59
2022/04/11 09:47:32;;;;;;;4.40;1.02;;;;;;;11.26;42.83;96398.88;10402010;28;20204;-59
2022/04/11 09:52:33;;;;;;;0.90;0.68;;;;;;;11.54;38.48;96270.72;10444859;28;20262;-58
2022/04/11 09:57:34;;;;;;;3.83;1.30;;;;;;;8.50;44.90;96373.38;10409988;28;20224;-61
2022/04/11 10:02:35;;;;;;;3.07;1.17;;;;;;;8.48;45.44;96390.16;10372610;28;20264;-58
2022/04/11 10:07:36;;;;;;;2.20;0.80;;;;;;;8.42;45.81;96409.81;10390330;28;20587;-55
2022/04/11 10:12:37;;;;;;;1.27;0.80;;;;;;;9.06;45.76;96435.78;10411685;28;20251;-59
2022/04/11 10:17:38;;;;;;;2.17;0.90;;;;;;;10.02;43.48;96390.25;10412467;28;20291;-57
2022/04/11 10:22:46;;;;;;;1.05;0.95;;;;;;;11.90;40.42;96353.34;10413376;28;20303;-54
2022/04/11 10:27:46;;;;;;;1.52;0.80;;;;;;;12.24;42.32;96418.63;10410973;28;20295;-59
2022/04/11 10:32:57;;;;;;;1.25;0.80;;;;;;;13.77;38.25;96332.50;10413938;28;20561;-61
2022/04/11 10:37:58;;;;;;;1.80;1.02;;;;;;;12.46;39.24;96326.84;10412006;28;20343;-60
2022/04/11 10:42:58;;;;;;;1.73;0.88;;;;;;;14.26;38.92;96387.09;10412171;28;20266;-55
2022/04/11 10:47:58;;;;;;;3.08;0.93;;;;;;;14.13;37.09;96317.66;10411610;28;20212;-61
2022/04/11 10:53:06;;;;;;;2.88;1.02;;;;;;;13.49;38.39;96322.66;10411142;28;20197;-61
2022/04/11 10:58:20;;;;;;;2.10;0.93;;;;;;;14.43;39.36;96402.66;10410540;28;20260;-61
2022/04/11 11:03:21;;;;;;;5.28;1.02;;;;;;;16.33;36.17;96355.00;10412523;28;20302;-61
2022/04/11 11:08:23;;;;;;;1.10;0.95;;;;;;;14.54;34.35;96208.91;10412072;28;20280;-60
2022/04/11 11:13:27;;;;;;;2.65;0.85;;;;;;;13.98;36.28;96262.41;10411476;28;20251;-59
2022/04/11 11:18:48;;;;;;;2.88;0.80;;;;;;;14.71;36.72;96310.44;10411559;28;20251;-60
2022/04/11 11:24:04;;;;;;;1.58;0.93;;;;;;;15.41;38.90;96410.72;10410367;28;20231;-60
2022/04/11 11:29:14;;;;;;;1.90;1.10;;;;;;;16.10;35.90;96339.50;10411056;28;20287;-63
2022/04/11 11:34:16;;;;;;;4.30;1.40;;;;;;;14.05;37.12;96250.91;10410583;28;20188;-64
2022/04/11 11:39:21;;;;;;;3.53;1.05;;;;;;;12.38;38.17;96229.75;10410282;28;20250;-61
2022/04/11 11:44:21;;;;;;;1.60;1.00;;;;;;;15.20;37.18;96329.00;10410350;28;20606;-62
2022/04/11 11:49:24;;;;;;;1.13;0.82;;;;;;;15.36;37.65;96344.53;10409401;28;20242;-63
2022/04/11 11:54:32;;;;;;;4.03;0.90;;;;;;;12.34;38.15;96229.28;10407951;28;20232;-63
2022/04/11 11:59:49;;;;;;;2.75;1.20;;;;;;;14.21;37.30;96307.81;10410441;28;20275;-62
2022/04/11 12:04:49;;;;;;;1.00;0.80;;;;;;;16.03;34.86;96287.47;10408785;28;20592;-64
2022/04/11 12:09:50;;;;;;;3.22;1.10;;;;;;;9.78;40.78;96223.56;10410131;28;20200;-60
2022/04/11 12:15:06;;;;;;;4.20;1.10;;;;;;;10.97;40.09;96274.44;10408567;28;20235;-61
2022/04/11 12:20:15;;;;;;;2.20;1.00;;;;;;;11.70;38.83;96238.34;10409090;28;20615;-60
2022/04/11 12:25:19;;;;;;;1.33;0.90;;;;;;;15.42;36.57;96308.59;10407041;28;20225;-60
2022/04/11 12:30:19;;;;;;;2.20;1.00;;;;;;;17.79;34.96;96311.59;10409264;28;20647;-63
2022/04/11 12:35:20;;;;;;;1.40;0.90;;;;;;;14.76;37.04;96246.56;10407733;28;20216;-59
2022/04/11 12:40:20;;;;;;;1.50;1.05;;;;;;;13.81;35.09;96159.97;10389527;28;20221;-60
2022/04/11 12:45:22;;;;;;;3.50;1.20;;;;;;;13.84;38.53;96288.63;10382020;28;20260;-60
2022/04/11 12:50:22;;;;;;;3.00;1.20;;;;;;;12.46;38.08;96213.88;10385197;28;20284;-60
2022/04/11 12:55:28;;;;;;;1.85;0.93;;;;;;;13.78;37.76;96255.13;10386429;28;20212;-60
2022/04/11 13:00:29;;;;;;;1.30;1.20;;;;;;;14.27;34.51;96148.97;10384034;28;20192;-59
2022/04/11 13:05:32;;;;;;;3.63;1.40;;;;;;;13.52;37.71;96243.34;10407244;28;20699;-59
2022/04/11 13:10:32;;;;;;;1.25;0.95;;;;;;;12.52;38.17;96188.72;10404828;28;20971;-58
2022/04/11 13:18:23;;;;;;;1.48;1.10;;;;;;;12.44;38.97;96244.78;10380785;28;20232;-61
2022/04/11 13:20:53;;;;;;;2.20;0.88;;;;;;;12.39;38.71;96213.81;10430625;22;20732;-60
2022/04/11 13:25:54;;;;;;;1.73;0.90;;;;;;;16.35;36.48;96292.97;10405830;28;20247;-59
2022/04/11 13:30:54;;;;;;;1.85;1.00;;;;;;;14.71;35.64;96169.91;10406237;28;20219;-61
2022/04/11 13:35:56;;;;;;;3.70;1.60;;;;;;;17.34;35.76;96287.72;10406810;28;20196;-60
2022/04/11 13:40:57;;;;;;;1.35;1.10;;;;;;;17.82;34.21;96226.38;10407477;28;20278;-61
2022/04/11 13:45:57;;;;;;;1.83;1.00;;;;;;;18.54;30.96;96117.25;10405855;28;20224;-63
2022/04/11 13:50:58;;;;;;;3.85;1.10;;;;;;;18.09;32.02;96125.47;10407162;28;20212;-61
2022/04/11 13:55:58;;;;;;;4.18;1.05;;;;;;;15.19;36.04;96175.16;10406269;28;20282;-61
2022/04/11 14:01:01;;;;;;;2.55;1.00;;;;;;;17.03;34.06;96180.75;10403824;28;20606;-62
2022/04/11 14:06:02;;;;;;;0.80;0.80;;;;;;;17.98;33.33;96171.25;10406587;28;20232;-62
2022/04/11 14:11:03;;;;;;;1.98;0.90;;;;;;;18.03;33.76;96187.28;10410809;28;20295;-62
2022/04/11 14:16:04;;;;;;;1.38;0.82;;;;;;;19.75;32.35;96195.34;10411962;28;20184;-61
2022/04/11 14:21:04;;;;;;;1.83;0.90;;;;;;;20.44;30.98;96157.63;10413684;28;20660;-63
2022/04/11 14:26:05;;;;;;;1.83;0.82;;;;;;;15.81;30.25;95898.56;10413705;28;20231;-62
2022/04/11 14:31:05;;;;;;;3.58;0.80;;;;;;;15.27;32.76;96027.19;10406176;28;20224;-59
2022/04/11 14:36:07;;;;;;;1.77;0.90;;;;;;;17.53;31.80;96097.97;10407925;28;20200;-60
2022/04/11 14:41:08;;;;;;;1.60;1.10;;;;;;;22.50;27.38;96106.13;10413111;28;20221;-62
2022/04/11 14:46:08;;;;;;;0.85;0.80;;;;;;;22.94;26.85;96087.41;10383891;28;20225;-59
2022/04/11 14:51:09;;;;;;;2.00;1.20;;;;;;;22.31;27.55;96083.44;10367966;28;20582;-59
2022/04/11 14:56:09;;;;;;;1.83;0.87;;;;;;;24.35;25.40;96056.19;10366488;28;20680;-59
2022/04/11 15:01:09;;;;;;;2.40;0.90;;;;;;;26.17;23.49;96044.41;10397684;28;20830;-61
2022/04/11 15:06:10;;;;;;;1.65;0.82;;;;;;;26.76;22.73;96017.88;10405142;28;20844;-58
2022/04/11 15:11:10;;;;;;;2.67;0.80;;;;;;;23.58;23.89;95924.66;10400081;28;20208;-59
2022/04/11 15:16:11;;;;;;;2.50;0.95;;;;;;;23.43;24.08;95957.44;10388930;28;20491;-57
2022/04/11 15:21:11;;;;;;;1.90;1.10;;;;;;;23.30;24.69;95996.91;10365913;28;20237;-58
2022/04/11 15:26:11;;;;;;;3.23;1.80;;;;;;;22.48;27.03;96062.03;10364919;28;20225;-61
2022/04/11 15:31:16;;;;;;;1.77;0.90;;;;;;;21.03;26.75;95993.25;10401216;28;20511;-60
2022/04/11 15:36:16;;;;;;;2.38;1.00;;;;;;;24.44;25.59;96085.94;10405333;28;20682;-61
2022/04/11 15:41:17;;;;;;;1.83;1.00;;;;;;;24.13;24.91;96025.03;10407929;28;20239;-62
2022/04/11 15:46:17;;;;;;;1.83;1.33;;;;;;;23.29;25.28;96005.19;10416718;28;20499;-59
2022/04/11 15:51:18;;;;;;;2.73;1.30;;;;;;;23.25;25.81;96022.81;10430621;28;20212;-62
2022/04/11 15:56:18;;;;;;;1.67;1.05;;;;;;;22.13;26.09;95999.13;10423913;28;20504;-61
2022/04/11 16:01:18;;;;;;;1.63;1.00;;;;;;;18.62;29.73;95996.75;10418936;28;20678;-59
2022/04/11 16:06:19;;;;;;;3.00;1.20;;;;;;;19.13;28.75;96012.41;10404834;28;20224;-61
2022/04/11 16:11:19;;;;;;;1.88;1.15;;;;;;;18.57;29.44;96027.63;10405404;28;20215;-58
2022/04/11 16:16:20;;;;;;;2.97;0.73;;;;;;;20.93;27.56;96051.63;10405777;28;20254;-60
2022/04/11 16:21:20;;;;;;;3.17;0.98;;;;;;;21.13;26.66;96016.59;10408398;28;20323;-62
2022/04/11 16:26:21;;;;;;;0.98;0.85;;;;;;;23.68;26.18;96118.06;10408455;28;20224;-60
2022/04/11 16:31:21;;;;;;;4.63;4.18;;;;;;;22.92;26.19;96067.34;10407483;28;20212;-60
2022/04/11 16:36:22;;;;;;;6.30;5.00;;;;;;;23.23;25.94;96075.69;10407983;28;20188;-61
2022/04/11 16:41:22;;;;;;;2.55;1.50;;;;;;;23.58;25.35;96044.97;10407738;28;20215;-61
2022/04/11 16:46:23;;;;;;;4.80;1.13;;;;;;;21.70;28.15;96082.28;10406861;28;20203;-61
2022/04/11 16:51:23;;;;;;;1.08;0.80;;;;;;;20.14;30.86;96116.03;10406469;28;20998;-59
2022/04/11 16:56:24;;;;;;;1.85;1.23;;;;;;;17.67;32.88;96103.97;10406614;28;20266;-58
2022/04/11 17:01:25;;;;;;;3.00;1.33;;;;;;;16.29;34.41;96126.44;10406140;28;20219;-58
2022/04/11 17:06:26;;;;;;;3.15;1.40;;;;;;;14.39;38.71;96228.28;10404877;28;20196;-57
2022/04/11 17:11:27;;;;;;;2.67;1.50;;;;;;;13.53;39.33;96244.16;10407122;28;20702;-58
2022/04/11 17:21:47;;;;;;;3.63;1.80;;;;;;;12.01;44.05;96368.72;10406709;28;20240;-57
2022/04/11 17:26:47;;;;;;;5.65;1.98;;;;;;;10.80;47.39;96430.91;10406763;28;20188;-58
2022/04/11 17:31:48;;;;;;;4.75;2.03;;;;;;;9.55;51.78;96513.66;10405488;28;20792;-55
2022/04/11 17:36:48;;;;;;;3.70;2.30;;;;;;;8.23;56.56;96588.25;10406088;28;20678;-54
2022/04/11 17:41:48;;;;;;;1.97;1.77;;;;;;;7.48;58.61;96606.47;10406757;28;20223;-54
2022/04/11 17:46:49;;;;;;;6.50;3.80;;;;;;;6.62;61.55;96634.97;10412270;28;20204;-57
2022/04/11 17:51:50;;;;;;;9.67;4.67;;;;;;;6.24;63.20;96650.31;10411302;28;20211;-54
2022/04/11 17:56:51;;;;;;;5.60;3.63;;;;;;;6.15;64.33;96667.50;10413762;28;20620;-57
2022/04/11 18:01:51;;;;;;;2.47;2.27;;;;;;;5.85;67.18;96683.88;10413466;28;20245;-58
2022/04/11 18:06:51;;;;;;;1.57;1.47;;;;;;;5.54;69.72;96699.41;10412430;28;20258;-52
2022/04/11 18:11:52;;;;;;;3.27;1.33;;;;;;;5.18;71.95;96698.84;10419575;28;20224;-56
2022/04/11 18:16:52;;;;;;;3.03;1.60;;;;;;;4.80;74.85;96710.50;10426788;28;20283;-58
2022/04/11 18:21:53;;;;;;;3.87;2.23;;;;;;;4.52;76.61;96696.25;10411878;28;20298;-53
2022/04/11 18:26:54;;;;;;;4.63;2.90;;;;;;;4.29;78.94;96707.47;10422092;28;20250;-58
2022/04/11 18:31:55;;;;;;;2.90;2.03;;;;;;;4.10;80.87;96699.44;10416394;28;20255;-58
2022/04/11 18:36:55;;;;;;;4.70;1.67;;;;;;;3.96;82.85;96699.66;10426230;28;20292;-58
2022/04/11 18:41:55;;;;;;;3.53;1.80;;;;;;;3.82;84.12;96698.09;10433453;28;20518;-57
2022/04/11 18:46:56;;;;;;;2.90;1.97;;;;;;;3.52;85.52;96702.88;10424884;28;20204;-56
2022/04/11 18:51:57;;;;;;;3.70;1.90;;;;;;;3.29;88.38;96719.22;10440365;28;20324;-51
2022/04/11 18:56:57;;;;;;;2.70;1.70;;;;;;;3.12;90.06;96720.44;10417718;28;20184;-51
2022/04/11 19:01:57;;;;;;;8.43;1.70;;;;;;;2.93;92.13;96724.34;10411180;28;20763;-52
2022/04/11 19:06:58;;;;;;;3.63;2.10;;;;;;;2.75;93.23;96734.22;10411028;28;20670;-51
2022/04/11 19:11:59;;;;;;;4.10;1.80;;;;;;;2.56;95.78;96732.13;10411029;28;20705;-50
2022/04/11 19:17:00;;;;;;;3.93;2.30;;;;;;;2.36;97.58;96741.25;10451485;28;20750;-50
2022/04/11 19:22:01;;;;;;;6.23;2.70;;;;;;;2.13;100.00;96746.22;10432286;28;20247;-54
2022/04/11 19:27:01;;;;;;;6.50;2.40;;;;;;;2.11;100.00;96747.22;10414785;28;20560;-53
2022/04/11 19:32:02;;;;;;;4.73;2.10;;;;;;;2.02;100.00;96746.09;10396108;22;20248;-53
2022/04/11 19:37:02;;;;;;;8.10;2.70;;;;;;;1.83;100.00;96745.66;10367383;28;20193;-56
2022/04/11 19:42:03;;;;;;;4.37;2.47;;;;;;;1.78;100.00;96740.81;10368385;28;20227;-56
2022/04/11 19:47:04;;;;;;;4.10;2.33;;;;;;;1.57;100.00;96748.19;10366665;28;20215;-54
2022/04/11 19:52:05;;;;;;;6.00;2.20;;;;;;;1.41;100.00;96744.03;10367480;28;20228;-52
2022/04/11 19:57:06;;;;;;;3.10;2.00;;;;;;;1.34;100.00;96734.22;10367924;28;20188;-54
2022/04/11 20:02:10;;;;;;;4.47;1.90;;;;;;;1.17;100.00;96732.72;10368264;28;20195;-54
2022/04/11 20:07:10;;;;;;;2.97;2.20;;;;;;;1.19;100.00;96730.84;10367117;28;20703;-55
2022/04/11 20:12:10;;;;;;;5.27;2.33;;;;;;;1.08;100.00;96728.94;10367760;28;20313;-54
2022/04/11 20:17:11;;;;;;;3.60;1.80;;;;;;;0.93;100.00;96733.31;10367414;28;20197;-55
2022/04/11 20:22:12;;;;;;;2.23;1.90;;;;;;;0.85;100.00;96740.72;10367467;28;20197;-54
2022/04/11 20:27:12;;;;;;;2.80;1.87;;;;;;;0.80;100.00;96747.91;10367751;28;20284;-54
2022/04/11 20:32:12;;;;;;;3.50;1.83;;;;;;;0.71;100.00;96750.13;10367321;28;20301;-53
2022/04/11 20:37:13;;;;;;;2.73;2.03;;;;;;;0.71;100.00;96750.13;10367088;28;20217;-54
2022/04/11 20:42:13;;;;;;;3.67;1.90;;;;;;;0.62;100.00;96755.03;10367978;28;20189;-54
2022/04/11 20:47:14;;;;;;;3.43;2.00;;;;;;;0.44;100.00;96747.47;10365717;28;20234;-54
2022/04/11 20:52:14;;;;;;;5.77;1.90;;;;;;;0.37;100.00;96755.66;10367244;28;20223;-55
2022/04/11 20:57:14;;;;;;;4.17;1.73;;;;;;;0.33;100.00;96758.44;10365933;28;20189;-53
2022/04/11 21:02:15;;;;;;;2.40;1.90;;;;;;;0.28;100.00;96752.75;10367069;28;20225;-55
2022/04/11 21:07:15;;;;;;;5.17;2.07;;;;;;;0.34;100.00;96752.38;10365949;28;20241;-54
2022/04/11 21:12:15;;;;;;;1.30;1.20;;;;;;;0.26;100.00;96752.00;10366700;28;20229;-53
2022/04/11 21:17:16;;;;;;;6.83;1.97;;;;;;;0.11;100.00;96755.50;10365917;28;20347;-53
2022/04/11 21:22:16;;;;;;;4.13;2.10;;;;;;;0.02;100.00;96750.91;10366045;28;20203;-54
2022/04/11 21:27:18;;;;;;;4.33;1.80;;;;;;;-0.05;100.00;96738.34;10365746;28;20570;-53
2022/04/11 21:32:19;;;;;;;2.90;2.27;;;;;;;-0.15;100.00;96733.84;10365533;28;20241;-53
2022/04/11 21:37:19;;;;;;;4.03;2.00;;;;;;;-0.21;100.00;96738.44;10365612;28;20270;-53
2022/04/11 21:42:19;;;;;;;2.60;1.70;;;;;;;-0.22;100.00;96734.19;10365571;28;20173;-53
2022/04/11 21:47:20;;;;;;;4.53;2.17;;;;;;;-0.40;100.00;96743.81;10365344;28;20676;-53
2022/04/11 21:52:20;;;;;;;5.47;2.10;;;;;;;-0.41;100.00;96733.63;10365663;28;20741;-54
2022/04/11 21:57:20;;;;;;;4.23;1.97;;;;;;;-0.29;100.00;96732.06;10365172;28;20667;-55
2022/04/11 22:03:07;;;;;;;7.93;2.07;;;;;;;-0.37;100.00;96720.47;10365496;28;20272;-53
2022/04/11 22:07:41;;;;;;;2.87;1.80;;;;;;;-0.35;100.00;96717.81;10364881;28;20630;-54
2022/04/11 22:12:41;;;;;;;3.10;1.97;;;;;;;-0.44;100.00;96715.78;10364755;28;20221;-54
2022/04/11 22:17:42;;;;;;;1.60;1.50;;;;;;;-0.51;100.00;96722.19;10364540;28;20216;-53
2022/04/11 22:22:42;;;;;;;4.47;1.83;;;;;;;-0.54;100.00;96728.31;10365173;28;20295;-53
2022/04/11 22:27:43;;;;;;;4.37;2.30;;;;;;;-0.63;100.00;96721.97;10363869;28;20345;-53
2022/04/11 22:32:44;;;;;;;2.73;1.37;;;;;;;-0.63;100.00;96731.44;10369858;28;20236;-54
2022/04/11 22:37:44;;;;;;;7.43;2.00;;;;;;;-0.70;100.00;96730.09;10370196;28;20249;-54
2022/04/11 22:42:44;;;;;;;4.73;1.70;;;;;;;-0.65;100.00;96723.78;10371772;28;20194;-54
2022/04/11 22:47:45;;;;;;;2.53;2.03;;;;;;;-0.71;100.00;96721.56;10370704;28;20776;-53
2022/04/11 22:52:45;;;;;;;6.00;2.10;;;;;;;-0.67;100.00;96719.63;10371162;28;20225;-54
2022/04/11 22:57:45;;;;;;;2.07;1.80;;;;;;;-0.78;100.00;96721.09;10370822;28;20217;-54
2022/04/11 23:02:46;;;;;;;3.17;2.00;;;;;;;-0.66;100.00;96724.72;10370751;28;20255;-54
2022/04/11 23:07:46;;;;;;;3.50;2.07;;;;;;;-0.65;100.00;96730.69;10370226;28;20332;-54
2022/04/11 23:13:01;;;;;;;4.63;2.07;;;;;;;-0.66;100.00;96729.88;10370888;28;20213;-54
2022/04/11 23:18:02;;;;;;;3.90;2.27;;;;;;;-0.59;100.00;96736.31;10370212;28;20292;-53
2022/04/11 23:23:02;;;;;;;5.67;2.10;;;;;;;-0.59;100.00;96726.00;10370231;28;20761;-52
2022/04/11 23:28:02;;;;;;;4.23;2.10;;;;;;;-0.49;100.00;96716.03;10369031;28;20334;-54